Time;durP1;ratioP1;P1;durP2;ratioP2;P2;SDS_P1;SDS_P2;PMS_P1;PMS_P2;Temp;Humidity;BMP_temperature;BMP_pressure;BME280_temperature;BME280_humidity;BME280_pressure;Samples;Min_cycle;Max_cycle;Signal;HPM_P1;HPM_P2
2023/06/01 00:02:05;;;;;;;0.80;0.40;;;;;;;9.29;100.00;99842.70;105351;1254;60603;-46
2023/06/01 00:04:32;;;;;;;0.80;0.40;;;;;;;9.28;100.00;99844.17;109203;1253;58766;-48
2023/06/01 00:07:01;;;;;;;0.80;0.50;;;;;;;9.28;100.00;99843.10;109093;1253;73410;-48
2023/06/01 00:09:28;;;;;;;1.80;0.40;;;;;;;9.26;100.00;99843.37;109107;1254;67903;-48
2023/06/01 00:11:56;;;;;;;0.60;0.40;;;;;;;9.21;100.00;99844.27;106944;1253;72517;-46
2023/06/01 00:14:23;;;;;;;1.20;0.40;;;;;;;9.18;100.00;99848.92;105403;1257;60899;-46
2023/06/01 00:16:51;;;;;;;1.30;0.40;;;;;;;9.17;100.00;99851.30;105580;1257;60417;-46
2023/06/01 00:19:20;;;;;;;1.30;0.40;;;;;;;9.19;100.00;99851.54;105434;1259;74092;-46
2023/06/01 00:21:48;;;;;;;1.50;0.30;;;;;;;9.22;100.00;99851.79;107096;1253;67588;-46
2023/06/01 00:24:16;;;;;;;1.70;0.40;;;;;;;9.23;100.00;99852.44;105493;1265;71303;-46
2023/06/01 00:26:43;;;;;;;0.70;0.40;;;;;;;9.24;100.00;99855.27;105369;1254;60467;-46
2023/06/01 00:29:10;;;;;;;8.10;1.00;;;;;;;9.23;100.00;99852.81;105474;1257;60418;-46
2023/06/01 00:31:38;;;;;;;4.20;0.60;;;;;;;9.20;100.00;99849.55;105394;1254;72086;-47
2023/06/01 00:34:07;;;;;;;3.50;0.60;;;;;;;9.14;100.00;99851.58;105397;1259;67225;-46
2023/06/01 00:36:35;;;;;;;1.40;0.70;;;;;;;9.05;100.00;99851.56;107801;1258;71272;-46
2023/06/01 00:39:03;;;;;;;3.20;0.50;;;;;;;8.98;100.00;99851.33;105395;1257;60440;-46
2023/06/01 00:41:33;;;;;;;4.80;0.60;;;;;;;8.93;100.00;99851.02;105542;1260;60516;-45
2023/06/01 00:44:00;;;;;;;8.10;1.10;;;;;;;8.89;100.00;99847.03;107546;1256;73624;-46
2023/06/01 00:46:28;;;;;;;6.20;0.70;;;;;;;8.87;100.00;99843.71;105426;1254;66229;-47
2023/06/01 00:48:56;;;;;;;5.90;0.80;;;;;;;8.87;100.00;99845.13;105411;1259;74362;-46
2023/06/01 00:51:23;;;;;;;5.80;0.70;;;;;;;8.90;100.00;99844.31;105421;1254;60991;-46
2023/06/01 00:53:51;;;;;;;12.80;0.80;;;;;;;8.93;100.00;99846.36;105990;1254;59645;-45
2023/06/01 00:56:18;;;;;;;2.70;0.50;;;;;;;8.93;100.00;99846.48;105421;1254;74563;-44
2023/06/01 00:58:46;;;;;;;6.20;1.90;;;;;;;8.96;100.00;99850.14;106062;1256;67864;-46
2023/06/01 01:01:18;;;;;;;11.60;0.90;;;;;;;8.99;100.00;99849.86;105481;1258;71502;-47
2023/06/01 01:03:57;;;;;;;9.80;1.40;;;;;;;9.04;100.00;99850.17;105997;1254;60431;-45
2023/06/01 01:06:39;;;;;;;3.10;0.60;;;;;;;9.08;100.00;99850.19;106022;1254;60500;-47
2023/06/01 01:09:28;;;;;;;11.90;0.80;;;;;;;9.10;100.00;99856.75;105456;1253;74624;-47
2023/06/01 01:11:59;;;;;;;5.40;0.80;;;;;;;9.09;100.00;99853.23;105426;1259;66805;-46
2023/06/01 01:14:39;;;;;;;9.70;0.80;;;;;;;9.09;100.00;99856.80;105388;1254;72893;-46
2023/06/01 01:17:07;;;;;;;4.50;0.80;;;;;;;9.10;100.00;99854.98;105572;1259;62138;-45
2023/06/01 01:19:46;;;;;;;7.00;1.10;;;;;;;9.10;100.00;99855.83;105839;1254;60453;-45
2023/06/01 01:22:36;;;;;;;2.60;0.70;;;;;;;9.08;100.00;99857.90;105507;1252;72892;-46
2023/06/01 01:25:50;;;;;;;4.80;0.80;;;;;;;8.98;100.00;99853.48;105514;1260;66790;-45
2023/06/01 01:28:36;;;;;;;7.50;0.80;;;;;;;8.90;100.00;99858.64;105507;1260;74840;-46
2023/06/01 01:31:04;;;;;;;2.80;0.70;;;;;;;8.82;100.00;99860.73;105448;1254;61714;-47
2023/06/01 01:33:32;;;;;;;1.00;0.50;;;;;;;8.73;100.00;99862.14;105884;1257;60412;-45
2023/06/01 01:36:00;;;;;;;0.80;0.50;;;;;;;8.69;100.00;99866.06;105482;1254;74416;-46
2023/06/01 01:38:28;;;;;;;0.80;0.40;;;;;;;8.68;100.00;99868.07;105515;1254;66313;-45
2023/06/01 01:40:56;;;;;;;2.80;0.40;;;;;;;8.64;100.00;99865.89;105600;1257;71392;-42
2023/06/01 01:43:24;;;;;;;0.70;0.40;;;;;;;8.62;100.00;99862.41;105556;1257;60702;-46
2023/06/01 01:45:59;;;;;;;1.80;0.50;;;;;;;8.60;100.00;99859.27;105845;1260;60520;-43
2023/06/01 01:48:35;;;;;;;1.00;0.50;;;;;;;8.60;100.00;99858.70;105834;1254;74125;-46
2023/06/01 01:51:06;;;;;;;0.90;0.50;;;;;;;8.61;100.00;99858.15;105940;1259;67842;-44
2023/06/01 01:53:33;;;;;;;2.80;0.60;;;;;;;8.61;100.00;99862.09;105404;1254;73324;-44
2023/06/01 01:56:00;;;;;;;2.70;0.60;;;;;;;8.61;100.00;99861.90;105288;1254;61636;-47
2023/06/01 01:58:28;;;;;;;1.20;0.50;;;;;;;8.59;100.00;99862.55;105674;1254;61587;-46
2023/06/01 02:00:56;;;;;;;1.00;0.50;;;;;;;8.53;100.00;99863.66;105381;1254;73703;-46
2023/06/01 02:03:23;;;;;;;1.00;0.50;;;;;;;8.45;100.00;99864.30;105420;1260;67675;-45
2023/06/01 02:05:51;;;;;;;1.90;0.60;;;;;;;8.41;100.00;99864.48;105450;1257;71255;-43
2023/06/01 02:08:18;;;;;;;0.70;0.60;;;;;;;8.40;100.00;99865.23;105405;1254;60979;-43
2023/06/01 02:10:45;;;;;;;7.70;1.80;;;;;;;8.41;100.00;99868.41;105352;1259;60476;-43
2023/06/01 02:13:13;;;;;;;1.00;0.50;;;;;;;8.39;100.00;99868.30;105354;1254;73601;-45
2023/06/01 02:15:40;;;;;;;1.60;0.50;;;;;;;8.36;100.00;99868.77;105591;1258;67100;-44
2023/06/01 02:18:08;;;;;;;0.70;0.50;;;;;;;8.33;100.00;99869.05;105299;1260;70713;-43
2023/06/01 02:20:35;;;;;;;1.60;0.50;;;;;;;8.37;100.00;99868.91;105376;1257;60731;-46
2023/06/01 02:23:02;;;;;;;1.30;0.50;;;;;;;8.41;100.00;99870.19;105339;1254;61682;-46
2023/06/01 02:25:30;;;;;;;3.40;0.60;;;;;;;8.43;100.00;99873.89;105412;1254;74034;-44
2023/06/01 02:27:57;;;;;;;2.90;0.90;;;;;;;8.43;100.00;99870.27;105389;1254;67556;-44
2023/06/01 02:30:25;;;;;;;2.50;0.60;;;;;;;8.44;100.00;99874.55;105439;1254;72740;-45
2023/06/01 02:32:52;;;;;;;4.10;0.60;;;;;;;8.40;100.00;99870.41;105430;1254;60460;-47
2023/06/01 02:35:19;;;;;;;2.20;0.60;;;;;;;8.36;100.00;99871.98;105397;1254;60434;-42
2023/06/01 02:37:47;;;;;;;2.70;0.70;;;;;;;8.29;100.00;99870.95;105298;1254;73744;-45
2023/06/01 02:40:15;;;;;;;2.70;0.60;;;;;;;8.27;100.00;99872.63;105425;1263;67394;-43
2023/06/01 02:42:42;;;;;;;1.10;0.50;;;;;;;8.27;100.00;99870.67;105361;1259;73062;-44
2023/06/01 02:45:10;;;;;;;1.10;0.50;;;;;;;8.29;100.00;99874.01;105408;1254;60633;-44
2023/06/01 02:47:37;;;;;;;0.70;0.40;;;;;;;8.30;100.00;99870.93;109082;1253;59997;-46
2023/06/01 02:50:05;;;;;;;0.80;0.40;;;;;;;8.34;100.00;99868.13;109128;1257;75958;-45
2023/06/01 02:52:35;;;;;;;1.00;0.40;;;;;;;8.39;100.00;99867.25;109060;1252;67353;-46
2023/06/01 02:55:02;;;;;;;2.70;0.50;;;;;;;8.46;100.00;99868.56;109047;1254;72490;-44
2023/06/01 02:57:53;;;;;;;0.60;0.40;;;;;;;8.56;100.00;99871.05;109080;1254;59387;-44
2023/06/01 03:00:21;;;;;;;2.50;0.70;;;;;;;8.64;100.00;99871.62;109044;1253;59044;-44
2023/06/01 03:02:48;;;;;;;0.80;0.50;;;;;;;8.74;100.00;99871.61;109059;1252;73878;-45
2023/06/01 03:05:16;;;;;;;2.20;0.50;;;;;;;8.85;100.00;99875.65;109165;1256;66304;-46
2023/06/01 03:07:46;;;;;;;0.80;0.60;;;;;;;8.95;100.00;99868.09;109033;1253;70513;-45
2023/06/01 03:10:20;;;;;;;1.00;0.50;;;;;;;9.02;100.00;99869.80;109041;1257;58984;-44
2023/06/01 03:12:58;;;;;;;2.00;0.60;;;;;;;9.05;100.00;99866.41;109111;1253;59813;-45
2023/06/01 03:15:27;;;;;;;0.70;0.50;;;;;;;9.06;100.00;99867.80;106185;1259;73962;-44
2023/06/01 03:17:55;;;;;;;1.40;0.50;;;;;;;9.11;100.00;99872.60;109031;1254;67554;-45
2023/06/01 03:20:22;;;;;;;1.00;0.50;;;;;;;9.20;100.00;99872.27;109021;1255;72671;-45
2023/06/01 03:22:50;;;;;;;2.80;0.50;;;;;;;9.31;100.00;99869.84;109049;1254;60235;-45
2023/06/01 03:25:17;;;;;;;1.40;0.40;;;;;;;9.41;100.00;99865.81;109024;1254;59069;-44
2023/06/01 03:27:45;;;;;;;1.30;0.40;;;;;;;9.52;100.00;99868.77;109066;1254;72194;-44
2023/06/01 03:30:13;;;;;;;2.50;0.30;;;;;;;9.63;100.00;99865.11;107878;1254;66550;-47
2023/06/01 03:32:42;;;;;;;0.90;0.40;;;;;;;9.75;100.00;99860.44;105824;1254;73234;-45
2023/06/01 03:35:13;;;;;;;0.70;0.50;;;;;;;9.89;100.00;99867.18;106662;1258;60465;-45
2023/06/01 03:37:43;;;;;;;1.00;0.50;;;;;;;10.03;100.00;99867.45;105370;1256;60367;-45
2023/06/01 03:40:11;;;;;;;0.60;0.50;;;;;;;10.17;100.00;99871.52;105332;1254;73690;-45
2023/06/01 03:42:47;;;;;;;1.60;0.60;;;;;;;10.29;100.00;99867.95;105652;1254;67651;-44
2023/06/01 03:45:18;;;;;;;1.60;0.50;;;;;;;10.40;100.00;99866.69;105628;1255;72646;-44
2023/06/01 03:47:46;;;;;;;1.40;0.40;;;;;;;10.52;100.00;99866.17;109131;1254;62084;-45
2023/06/01 03:50:13;;;;;;;2.20;0.40;;;;;;;10.64;100.00;99866.52;109032;1253;59870;-46
2023/06/01 03:52:41;;;;;;;0.50;0.40;;;;;;;10.77;100.00;99868.58;108203;1259;72594;-43
2023/06/01 03:55:10;;;;;;;0.80;0.40;;;;;;;10.91;100.00;99860.89;105274;1254;67645;-44
2023/06/01 03:57:54;;;;;;;0.50;0.40;;;;;;;11.08;100.00;99861.16;108985;1254;72871;-45
2023/06/01 04:00:23;;;;;;;2.00;0.40;;;;;;;11.24;100.00;99859.46;106717;1259;60468;-44
2023/06/01 04:02:54;;;;;;;0.80;0.40;;;;;;;11.41;100.00;99855.92;105426;1257;59632;-46
2023/06/01 04:05:23;;;;;;;1.30;0.30;;;;;;;11.58;100.00;99853.41;105463;1254;73169;-44
2023/06/01 04:07:51;;;;;;;6.80;0.40;;;;;;;11.74;100.00;99853.34;105392;1259;67027;-45
2023/06/01 04:10:19;;;;;;;3.90;0.40;;;;;;;11.91;100.00;99852.85;105395;1255;70670;-45
2023/06/01 04:15:12;;;;;;;2.00;0.40;;;;;;;12.24;100.00;99854.85;102398;1294;600355;-45
2023/06/01 04:17:41;;;;;;;1.20;0.40;;;;;;;12.39;100.00;99853.68;104469;1272;59229;-45
2023/06/01 04:20:13;;;;;;;0.80;0.50;;;;;;;12.54;100.00;99855.91;104897;1270;60092;-47
2023/06/01 04:22:40;;;;;;;0.50;0.30;;;;;;;12.69;100.00;99857.09;104625;1270;72147;-47
2023/06/01 04:25:11;;;;;;;1.10;0.40;;;;;;;12.83;100.00;99855.02;104284;1269;67141;-48
2023/06/01 04:27:44;;;;;;;0.80;0.40;;;;;;;12.98;100.00;99852.77;104239;1271;232283;-47
2023/06/01 04:30:13;;;;;;;1.00;0.40;;;;;;;13.12;100.00;99856.64;105491;1268;61706;-45
2023/06/01 04:32:43;;;;;;;0.40;0.30;;;;;;;13.26;100.00;99856.22;105166;1264;59772;-47
2023/06/01 04:35:11;;;;;;;0.80;0.40;;;;;;;13.39;100.00;99851.29;104694;1267;70192;-46
2023/06/01 04:37:40;;;;;;;1.00;0.40;;;;;;;13.53;100.00;99850.68;103664;1264;68187;-46
2023/06/01 04:40:09;;;;;;;0.90;0.50;;;;;;;13.66;100.00;99854.02;104353;1269;70728;-46
2023/06/01 04:42:45;;;;;;;5.70;0.40;;;;;;;13.81;100.00;99855.68;104419;1269;62890;-45
2023/06/01 04:45:13;;;;;;;1.50;0.50;;;;;;;13.95;100.00;99857.37;104334;1269;60057;-47
2023/06/01 04:47:44;;;;;;;3.20;0.40;;;;;;;14.09;100.00;99859.58;105154;1268;73174;-45
2023/06/01 04:50:19;;;;;;;5.50;0.40;;;;;;;14.23;100.00;99856.73;105014;1271;66056;-46
2023/06/01 04:52:49;;;;;;;1.30;0.40;;;;;;;14.35;100.00;99855.02;104507;1274;72987;-49
2023/06/01 04:55:16;;;;;;;1.70;0.40;;;;;;;14.50;100.00;99855.80;104931;1268;59643;-47
2023/06/01 04:57:44;;;;;;;0.50;0.40;;;;;;;14.64;100.00;99856.16;104312;1269;61459;-47
2023/06/01 05:00:13;;;;;;;0.70;0.30;;;;;;;14.78;100.00;99853.98;104519;1270;73618;-46
2023/06/01 05:02:42;;;;;;;1.30;0.40;;;;;;;14.92;100.00;99855.42;104630;1268;68650;-46
2023/06/01 05:05:11;;;;;;;0.50;0.40;;;;;;;15.07;100.00;99855.89;105880;1268;71923;-46
2023/06/01 05:07:39;;;;;;;1.90;0.80;;;;;;;15.22;100.00;99855.44;104439;1263;59731;-49
2023/06/01 05:10:08;;;;;;;0.90;0.50;;;;;;;15.38;100.00;99854.06;104386;1264;60340;-48
2023/06/01 05:12:42;;;;;;;1.20;0.40;;;;;;;15.53;100.00;99853.60;104345;1264;73643;-49
2023/06/01 05:15:11;;;;;;;2.20;0.30;;;;;;;15.66;100.00;99852.73;104394;1269;69730;-48
2023/06/01 05:17:39;;;;;;;0.70;0.40;;;;;;;15.80;100.00;99855.34;104387;1273;71441;-46
2023/06/01 05:20:15;;;;;;;1.30;0.30;;;;;;;15.94;100.00;99853.86;104340;1272;59701;-48
2023/06/01 05:22:47;;;;;;;0.70;0.30;;;;;;;16.08;100.00;99857.42;104597;1269;59758;-47
2023/06/01 05:25:15;;;;;;;2.90;0.40;;;;;;;16.20;100.00;99855.84;104478;1271;73018;-48
2023/06/01 05:27:42;;;;;;;0.40;0.30;;;;;;;16.34;100.00;99851.45;104978;1269;66393;-45
2023/06/01 05:30:11;;;;;;;2.30;0.40;;;;;;;16.47;100.00;99849.79;104465;1272;71849;-46
2023/06/01 05:32:39;;;;;;;0.60;0.40;;;;;;;16.59;100.00;99850.21;104599;1270;60465;-47
2023/06/01 05:35:11;;;;;;;0.40;0.30;;;;;;;16.71;100.00;99850.30;104596;1269;59721;-45
2023/06/01 05:37:39;;;;;;;1.40;0.30;;;;;;;16.82;100.00;99848.41;105147;1270;73319;-49
2023/06/01 05:40:08;;;;;;;1.40;0.30;;;;;;;16.92;100.00;99847.11;104566;1279;67273;-46
2023/06/01 05:42:37;;;;;;;1.50;0.40;;;;;;;17.02;100.00;99849.23;108216;1270;73908;-47
2023/06/01 05:45:05;;;;;;;0.60;0.30;;;;;;;17.13;100.00;99847.55;108418;1263;60832;-45
2023/06/01 05:47:33;;;;;;;0.90;0.30;;;;;;;17.23;100.00;99848.27;108457;1264;58795;-46
2023/06/01 05:50:01;;;;;;;0.80;0.50;;;;;;;17.33;100.00;99844.23;108461;1264;71632;-47
2023/06/01 05:52:29;;;;;;;0.50;0.30;;;;;;;17.44;100.00;99849.73;108480;1264;65723;-46
2023/06/01 05:54:57;;;;;;;2.70;0.50;;;;;;;17.56;100.00;99849.44;108384;1264;72191;-46
2023/06/01 05:57:25;;;;;;;4.50;0.40;;;;;;;17.67;100.00;99854.23;105692;1269;59766;-46
2023/06/01 05:59:53;;;;;;;2.20;0.40;;;;;;;17.76;100.00;99853.48;104686;1267;59650;-49
2023/06/01 06:02:20;;;;;;;0.50;0.30;;;;;;;17.87;100.00;99859.05;104510;1275;75649;-46
2023/06/01 06:04:48;;;;;;;0.50;0.30;;;;;;;17.97;100.00;99857.55;108367;1267;66349;-49
2023/06/01 06:07:15;;;;;;;5.10;0.30;;;;;;;18.06;100.00;99858.05;108361;1264;70636;-46
2023/06/01 06:09:43;;;;;;;1.50;0.30;;;;;;;18.17;100.00;99857.09;104981;1267;59769;-46
2023/06/01 06:12:10;;;;;;;3.50;0.50;;;;;;;18.26;100.00;99853.82;104162;1266;59537;-45
2023/06/01 06:14:38;;;;;;;1.00;0.40;;;;;;;18.35;100.00;99852.54;103935;1264;72759;-49
2023/06/01 06:17:08;;;;;;;1.50;0.30;;;;;;;18.46;100.00;99849.69;108324;1269;67831;-49
2023/06/01 06:19:36;;;;;;;0.80;0.40;;;;;;;18.55;100.00;99850.20;108406;1267;73362;-46
2023/06/01 06:22:04;;;;;;;0.40;0.30;;;;;;;18.65;100.00;99851.63;108391;1264;59210;-47
2023/06/01 06:24:31;;;;;;;5.20;1.00;;;;;;;18.75;100.00;99851.38;105076;1270;59663;-46
2023/06/01 06:26:58;;;;;;;3.20;0.30;;;;;;;18.85;100.00;99847.86;104214;1267;74846;-46
2023/06/01 06:29:26;;;;;;;0.50;0.30;;;;;;;18.95;100.00;99846.70;104812;1270;67779;-47
2023/06/01 06:31:53;;;;;;;0.40;0.30;;;;;;;19.02;100.00;99848.41;104565;1269;72702;-47
2023/06/01 06:34:21;;;;;;;1.20;0.40;;;;;;;19.10;100.00;99849.82;104519;1270;59720;-45
2023/06/01 06:36:48;;;;;;;1.50;0.40;;;;;;;19.17;100.00;99846.68;105270;1260;59625;-50
2023/06/01 06:39:16;;;;;;;0.60;0.40;;;;;;;19.24;100.00;99848.43;105160;1259;73217;-49
2023/06/01 06:41:43;;;;;;;1.10;0.30;;;;;;;19.32;100.00;99847.58;105243;1255;67276;-46
2023/06/01 06:44:10;;;;;;;0.90;0.40;;;;;;;19.41;100.00;99849.06;105286;1259;73153;-47
2023/06/01 06:46:38;;;;;;;1.70;0.20;;;;;;;19.48;100.00;99847.17;105219;1259;59788;-46
2023/06/01 06:49:05;;;;;;;0.50;0.40;;;;;;;19.55;100.00;99847.65;105305;1257;59542;-49
2023/06/01 06:51:33;;;;;;;1.10;0.40;;;;;;;19.63;100.00;99844.48;105413;1258;73760;-48
2023/06/01 06:54:05;;;;;;;1.10;0.40;;;;;;;19.70;100.00;99842.81;105222;1257;70298;-48
2023/06/01 06:56:32;;;;;;;0.90;0.30;;;;;;;19.77;100.00;99844.02;105759;1267;70897;-49
2023/06/01 06:59:00;;;;;;;0.80;0.40;;;;;;;19.85;100.00;99843.73;105339;1260;60341;-46
2023/06/01 07:01:35;;;;;;;1.60;0.30;;;;;;;19.92;100.00;99844.14;105349;1254;59936;-50
2023/06/01 07:04:06;;;;;;;1.40;0.30;;;;;;;19.97;100.00;99843.92;105490;1254;73731;-46
2023/06/01 07:06:34;;;;;;;1.10;0.30;;;;;;;20.01;100.00;99844.66;105652;1260;64957;-49
2023/06/01 07:09:01;;;;;;;1.30;0.40;;;;;;;20.03;100.00;99843.23;105393;1253;73510;-47
2023/06/01 07:11:29;;;;;;;2.20;0.20;;;;;;;20.07;100.00;99843.83;105305;1257;62411;-47
2023/06/01 07:13:57;;;;;;;0.80;0.30;;;;;;;20.12;100.00;99845.02;105269;1261;59750;-51
2023/06/01 07:16:25;;;;;;;1.00;0.30;;;;;;;20.17;100.00;99839.48;105442;1254;72399;-46
2023/06/01 07:18:53;;;;;;;1.90;0.40;;;;;;;20.22;100.00;99838.26;105510;1254;68944;-48
2023/06/01 07:21:20;;;;;;;3.60;0.40;;;;;;;20.26;100.00;99830.97;104698;1258;71743;-46
2023/06/01 07:23:48;;;;;;;2.40;0.40;;;;;;;20.29;100.00;99831.85;104689;1258;59730;-49
2023/06/01 07:26:15;;;;;;;2.00;0.40;;;;;;;20.31;100.00;99830.42;105020;1254;59809;-48
2023/06/01 07:28:43;;;;;;;2.30;0.30;;;;;;;20.35;100.00;99830.22;104979;1255;74168;-49
2023/06/01 07:31:10;;;;;;;0.80;0.30;;;;;;;20.40;100.00;99827.10;105085;1258;65711;-48
2023/06/01 07:33:37;;;;;;;1.40;0.40;;;;;;;20.45;100.00;99823.90;105334;1254;73248;-50
2023/06/01 07:36:06;;;;;;;0.90;0.40;;;;;;;20.51;100.00;99816.83;105514;1260;61228;-46
2023/06/01 07:38:34;;;;;;;1.30;0.30;;;;;;;20.59;100.00;99814.67;105443;1255;60737;-48
2023/06/01 07:41:01;;;;;;;0.50;0.40;;;;;;;20.64;100.00;99812.16;105098;1260;71161;-46
2023/06/01 07:43:29;;;;;;;0.80;0.40;;;;;;;20.70;100.00;99810.21;105259;1257;70281;-46
2023/06/01 07:45:57;;;;;;;0.50;0.30;;;;;;;20.74;100.00;99810.55;105039;1260;72891;-48
2023/06/01 07:48:25;;;;;;;1.70;0.40;;;;;;;20.81;100.00;99806.86;105411;1254;59701;-48
2023/06/01 07:50:52;;;;;;;0.80;0.30;;;;;;;20.92;100.00;99809.34;105262;1254;62158;-49
2023/06/01 07:53:20;;;;;;;0.90;0.30;;;;;;;21.02;100.00;99806.77;105140;1257;75496;-47
2023/06/01 07:55:50;;;;;;;2.40;0.30;;;;;;;21.10;100.00;99804.52;105129;1259;66909;-46
2023/06/01 07:58:17;;;;;;;1.50;0.40;;;;;;;21.17;100.00;99804.17;105214;1254;73033;-51
2023/06/01 08:00:44;;;;;;;0.40;0.30;;;;;;;21.20;100.00;99793.34;105167;1259;60111;-49
2023/06/01 08:03:12;;;;;;;2.70;0.40;;;;;;;21.23;100.00;99794.84;105179;1254;59988;-47
2023/06/01 08:05:42;;;;;;;0.60;0.30;;;;;;;21.30;100.00;99786.34;105353;1255;71690;-47
2023/06/01 08:08:10;;;;;;;3.70;0.30;;;;;;;21.36;100.00;99784.52;104913;1254;67809;-48
2023/06/01 08:10:39;;;;;;;0.60;0.30;;;;;;;21.43;100.00;99787.27;105475;1259;71156;-48
2023/06/01 08:13:07;;;;;;;0.70;0.30;;;;;;;21.53;100.00;99782.52;105601;1257;59741;-47
2023/06/01 08:15:36;;;;;;;2.40;0.40;;;;;;;21.63;100.00;99779.27;105135;1258;63380;-48
2023/06/01 08:18:06;;;;;;;1.10;0.40;;;;;;;21.68;100.00;99779.27;105881;1254;74420;-49
2023/06/01 08:20:35;;;;;;;1.20;0.30;;;;;;;21.73;100.00;99778.61;106699;1255;66889;-51
2023/06/01 08:23:02;;;;;;;1.50;0.30;;;;;;;21.79;100.00;99778.37;105341;1254;74989;-47
2023/06/01 08:25:30;;;;;;;0.70;0.40;;;;;;;21.86;100.00;99773.01;105627;1257;60409;-47
2023/06/01 08:27:57;;;;;;;1.00;0.30;;;;;;;21.93;100.00;99767.61;105616;1251;60395;-48
2023/06/01 08:30:25;;;;;;;1.50;0.40;;;;;;;22.02;100.00;99762.98;105498;1257;72621;-48
2023/06/01 08:32:53;;;;;;;2.50;0.30;;;;;;;22.10;100.00;99765.28;109112;1251;67798;-47
2023/06/01 08:35:21;;;;;;;0.60;0.30;;;;;;;22.18;100.00;99762.64;108552;1256;72895;-47
2023/06/01 08:37:48;;;;;;;2.80;0.40;;;;;;;22.26;100.00;99758.02;105516;1258;60389;-49
2023/06/01 08:40:16;;;;;;;1.30;0.40;;;;;;;22.35;100.00;99754.66;105486;1259;60524;-46
2023/06/01 08:43:00;;;;;;;1.70;0.40;;;;;;;22.42;100.00;99753.05;105479;1257;74296;-48
2023/06/01 08:45:27;;;;;;;0.50;0.30;;;;;;;22.48;100.00;99746.56;106896;1253;67654;-51
2023/06/01 08:47:55;;;;;;;3.00;0.50;;;;;;;22.51;100.00;99738.97;105458;1262;72135;-48
2023/06/01 08:50:23;;;;;;;1.80;0.40;;;;;;;22.49;100.00;99730.21;109182;1256;58464;-47
2023/06/01 08:52:53;;;;;;;1.20;0.40;;;;;;;22.45;100.00;99729.45;108499;1253;60526;-47
2023/06/01 08:55:20;;;;;;;1.70;0.50;;;;;;;22.45;100.00;99731.86;109060;1253;75160;-48
2023/06/01 08:57:48;;;;;;;0.60;0.40;;;;;;;22.49;100.00;99730.91;107531;1254;67857;-50
2023/06/01 09:00:17;;;;;;;0.60;0.40;;;;;;;22.53;100.00;99731.05;105461;1258;71665;-50
2023/06/01 09:02:44;;;;;;;2.10;0.40;;;;;;;22.54;100.00;99725.50;109064;1253;60244;-47
2023/06/01 09:05:12;;;;;;;1.40;0.30;;;;;;;22.53;100.00;99729.60;109142;1253;60522;-47
2023/06/01 09:07:40;;;;;;;10.00;1.10;;;;;;;22.57;100.00;99722.63;109151;1253;72541;-47
2023/06/01 09:10:07;;;;;;;15.40;3.20;;;;;;;22.62;100.00;99726.15;109163;1252;66995;-47
2023/06/01 09:12:38;;;;;;;0.40;0.30;;;;;;;22.67;100.00;99719.88;107388;1254;71659;-46
2023/06/01 09:15:07;;;;;;;2.10;0.40;;;;;;;22.72;100.00;99722.48;109201;1252;61237;-49
2023/06/01 09:17:34;;;;;;;2.00;0.50;;;;;;;22.79;100.00;99726.34;109198;1251;61375;-49
2023/06/01 09:20:03;;;;;;;5.80;0.50;;;;;;;22.82;100.00;99722.02;109010;1253;73888;-47
2023/06/01 09:22:42;;;;;;;0.50;0.30;;;;;;;22.78;100.00;99716.96;106218;1254;68036;-47
2023/06/01 09:25:10;;;;;;;0.70;0.30;;;;;;;22.73;100.00;99709.55;109111;1253;72147;-48
2023/06/01 09:27:45;;;;;;;3.10;0.30;;;;;;;22.69;100.00;99704.84;106225;1253;60419;-48
2023/06/01 09:30:13;;;;;;;3.00;0.50;;;;;;;22.67;100.00;99699.33;105410;1254;60577;-50
2023/06/01 09:32:41;;;;;;;1.70;0.40;;;;;;;22.67;100.00;99697.65;105599;1253;73923;-46
2023/06/01 09:35:09;;;;;;;1.50;0.40;;;;;;;22.70;100.00;99696.67;106283;1257;67755;-48
2023/06/01 09:37:37;;;;;;;0.90;0.40;;;;;;;22.72;100.00;99696.09;105477;1252;74985;-51
2023/06/01 09:40:23;;;;;;;2.20;0.40;;;;;;;22.75;100.00;99691.27;105498;1257;61685;-49
2023/06/01 09:42:51;;;;;;;1.90;0.30;;;;;;;22.80;100.00;99690.60;105744;1254;61860;-52
2023/06/01 09:45:20;;;;;;;1.40;0.30;;;;;;;22.86;100.00;99691.47;106307;1254;74077;-50
2023/06/01 09:47:48;;;;;;;2.40;0.80;;;;;;;22.91;100.00;99690.91;105414;1258;66854;-47
2023/06/01 09:50:35;;;;;;;0.80;0.30;;;;;;;22.96;100.00;99686.30;106083;1253;71253;-48
2023/06/01 09:53:04;;;;;;;2.20;0.40;;;;;;;23.02;100.00;99684.31;105545;1257;60743;-49
2023/06/01 09:55:31;;;;;;;0.70;0.30;;;;;;;23.07;100.00;99688.92;105431;1253;60605;-50
2023/06/01 09:58:21;;;;;;;0.50;0.30;;;;;;;23.10;100.00;99683.65;105399;1251;73728;-47
2023/06/01 10:00:50;;;;;;;0.90;0.40;;;;;;;23.14;100.00;99676.89;106309;1251;70314;-48
2023/06/01 10:03:18;;;;;;;2.20;0.30;;;;;;;23.14;100.00;99675.63;105778;1251;72483;-50
2023/06/01 10:05:46;;;;;;;0.70;0.30;;;;;;;23.12;100.00;99672.52;105501;1253;60494;-49
2023/06/01 10:08:15;;;;;;;2.40;0.40;;;;;;;23.14;100.00;99673.23;105463;1259;60598;-48
2023/06/01 10:10:44;;;;;;;0.50;0.40;;;;;;;23.15;100.00;99669.04;105485;1254;75074;-47
2023/06/01 10:13:12;;;;;;;0.70;0.40;;;;;;;23.14;100.00;99664.42;105429;1256;66393;-47
2023/06/01 10:15:40;;;;;;;2.20;0.40;;;;;;;23.13;100.00;99663.09;105475;1259;71891;-50
2023/06/01 10:18:07;;;;;;;2.50;0.30;;;;;;;23.13;100.00;99661.79;105423;1258;60706;-47
2023/06/01 10:20:36;;;;;;;1.40;0.60;;;;;;;23.14;100.00;99656.75;105496;1257;60325;-47
2023/06/01 10:23:03;;;;;;;2.60;0.50;;;;;;;23.19;100.00;99656.45;106084;1254;75999;-47
2023/06/01 10:25:37;;;;;;;1.40;0.30;;;;;;;23.23;100.00;99656.38;105315;1258;67685;-51
2023/06/01 10:28:07;;;;;;;3.10;0.70;;;;;;;23.26;100.00;99655.70;105288;1253;75149;-49
2023/06/01 10:30:35;;;;;;;1.10;0.30;;;;;;;23.29;100.00;99651.13;105721;1256;60616;-48
2023/06/01 10:33:02;;;;;;;3.20;0.40;;;;;;;23.35;100.00;99647.16;105480;1254;60545;-47
2023/06/01 10:35:30;;;;;;;0.50;0.40;;;;;;;23.43;100.00;99639.08;105538;1254;72972;-48
2023/06/01 10:38:21;;;;;;;1.50;0.40;;;;;;;23.48;100.00;99640.58;105679;1253;67552;-47
2023/06/01 10:40:48;;;;;;;0.50;0.40;;;;;;;23.51;100.00;99634.83;105392;1255;70644;-48
2023/06/01 10:43:36;;;;;;;0.70;0.40;;;;;;;23.54;100.00;99630.89;105334;1256;61091;-48
2023/06/01 10:46:30;;;;;;;0.40;0.30;;;;;;;23.58;100.00;99628.38;105986;1253;60598;-47
2023/06/01 10:48:57;;;;;;;3.10;0.40;;;;;;;23.65;100.00;99626.39;105904;1251;72003;-52
2023/06/01 10:51:25;;;;;;;0.80;0.50;;;;;;;23.70;100.00;99619.06;105406;1253;67894;-47
2023/06/01 10:53:53;;;;;;;3.20;0.60;;;;;;;23.76;100.00;99614.94;105829;1253;73855;-50
2023/06/01 10:56:26;;;;;;;3.70;0.40;;;;;;;23.83;100.00;99610.75;105232;1254;60534;-46
2023/06/01 10:59:08;;;;;;;1.20;0.40;;;;;;;23.89;100.00;99615.45;105746;1253;60528;-48
2023/06/01 11:01:45;;;;;;;2.10;0.40;;;;;;;23.95;100.00;99612.80;105399;1253;74713;-46
2023/06/01 11:04:13;;;;;;;0.90;0.40;;;;;;;23.95;100.00;99602.70;105271;1253;67258;-51
2023/06/01 11:06:42;;;;;;;0.80;0.40;;;;;;;23.91;100.00;99599.85;105109;1253;72449;-48
2023/06/01 11:09:11;;;;;;;5.70;0.40;;;;;;;23.88;100.00;99593.33;105436;1256;60473;-48
2023/06/01 11:11:59;;;;;;;0.50;0.40;;;;;;;23.89;100.00;99587.41;105428;1254;60480;-51
2023/06/01 11:14:30;;;;;;;2.70;0.40;;;;;;;23.96;100.00;99580.05;106931;1253;72766;-48
2023/06/01 11:17:30;;;;;;;2.90;0.60;;;;;;;24.03;100.00;99580.13;104880;1253;67595;-46
2023/06/01 11:20:00;;;;;;;1.20;0.30;;;;;;;24.14;100.00;99575.09;105033;1257;74223;-52
2023/06/01 11:22:36;;;;;;;2.20;0.40;;;;;;;24.21;100.00;99572.91;106013;1253;60508;-46
2023/06/01 11:25:06;;;;;;;2.00;0.50;;;;;;;24.28;100.00;99570.69;105703;1254;61614;-49
2023/06/01 11:27:33;;;;;;;1.70;0.40;;;;;;;24.36;100.00;99576.05;105496;1254;74019;-45
2023/06/01 11:30:01;;;;;;;2.30;0.30;;;;;;;24.43;100.00;99569.41;104722;1254;68238;-51
2023/06/01 11:32:28;;;;;;;0.70;0.40;;;;;;;24.49;100.00;99570.42;105109;1256;72857;-50
2023/06/01 11:34:56;;;;;;;0.40;0.30;;;;;;;24.54;100.00;99568.13;105381;1258;60611;-50